Diamond Point, Washington
Current Conditions -  °F | °C
As of 6:53 PM on Tuesday 21 Oct 2014 (Local Time) from KCLM Reporting Station
Light Rain Light Rain  
Wind Chill: 55°   Ceiling: 7000
Heat Index: 55°   Visibility: 9mi
Dew Point: 52°   Wind: 6mph
Humidity: 89%   Direction: 120°ESE
Pressure: 29.72"   Gusts: NA
Location:  48.0015°N, 123.09°W
Report Text: KCLM 220153Z AUTO 12005KT 9SM -RA BKN070 OVC085 13/11 A2972 RMK AO2 SLP066 P0003 T01280111 TSNO
Loading
Personal Weather Stations






























Interactive Weather Map
Tropical Storm Tracking
New forecast layout! Learn more

10-Day Weather Forecast

Advertisements
Track Severe Weather on mobile